createdAt,value
2017-04-19T00:00:13.246Z,2.54
2017-04-19T00:01:14.987Z,2.52
2017-04-19T00:02:16.048Z,2.54
2017-04-19T00:03:17.086Z,2.57
2017-04-19T00:04:18.121Z,2.63
2017-04-19T00:05:19.709Z,2.65
2017-04-19T00:06:20.915Z,2.72
2017-04-19T00:07:22.635Z,2.62
2017-04-19T00:08:23.797Z,2.60
2017-04-19T00:09:24.797Z,2.74
2017-04-19T00:10:26.897Z,2.64
2017-04-19T00:11:27.950Z,2.47
2017-04-19T00:12:29.206Z,2.38
2017-04-19T00:13:30.435Z,2.37
2017-04-19T00:14:31.648Z,2.29
2017-04-19T00:15:32.893Z,2.36
2017-04-19T00:16:34.168Z,2.41
2017-04-19T00:17:35.428Z,2.49
2017-04-19T00:18:37.002Z,2.44
2017-04-19T00:19:38.095Z,2.45
2017-04-19T00:20:39.234Z,2.47
2017-04-19T00:21:40.575Z,2.28
2017-04-19T00:22:41.674Z,2.36
2017-04-19T00:23:42.738Z,2.37
2017-04-19T00:24:43.880Z,2.47
2017-04-19T00:25:45.113Z,2.37
2017-04-19T00:26:46.408Z,2.29
2017-04-19T00:27:48.037Z,2.37
2017-04-19T00:28:49.318Z,2.31
2017-04-19T00:29:50.810Z,2.24
2017-04-19T00:30:52.402Z,2.38
2017-04-19T00:31:53.576Z,2.38
2017-04-19T00:32:54.705Z,2.55
2017-04-19T00:33:55.915Z,2.50
2017-04-19T00:34:57.343Z,2.44
2017-04-19T00:35:58.936Z,2.41
2017-04-19T00:37:00.000Z,2.32
2017-04-19T00:38:01.091Z,2.20
2017-04-19T00:39:02.320Z,2.22
2017-04-19T00:40:03.356Z,2.17
2017-04-19T00:41:04.425Z,2.33
2017-04-19T00:42:05.401Z,2.41
2017-04-19T00:43:06.370Z,2.51
2017-04-19T00:44:07.548Z,2.42
2017-04-19T00:45:08.590Z,2.36
2017-04-19T00:46:09.819Z,2.39
2017-04-19T00:47:10.827Z,2.39
2017-04-19T00:48:11.904Z,2.39
2017-04-19T00:49:13.215Z,2.39
2017-04-19T00:50:14.345Z,2.41
2017-04-19T00:51:15.581Z,2.30
2017-04-19T00:52:16.760Z,2.28
2017-04-19T00:53:17.820Z,2.44
2017-04-19T00:54:18.856Z,2.38
2017-04-19T00:55:19.812Z,2.48
2017-04-19T00:56:21.327Z,2.38
2017-04-19T00:57:22.493Z,2.19
2017-04-19T00:58:23.796Z,2.24
2017-04-19T00:59:25.036Z,2.25
2017-04-19T01:00:26.615Z,2.31
2017-04-19T01:01:28.164Z,2.32
2017-04-19T01:02:29.207Z,2.23
2017-04-19T01:03:30.323Z,2.08
2017-04-19T01:04:31.385Z,2.17
2017-04-19T01:05:32.424Z,2.20
2017-04-19T01:06:33.416Z,2.30
2017-04-19T01:07:34.912Z,2.21
2017-04-19T01:09:42.955Z,2.18
2017-04-19T01:10:44.821Z,2.27
2017-04-19T01:11:46.679Z,2.15
2017-04-19T01:12:47.844Z,2.10
2017-04-19T01:13:48.891Z,2.18
2017-04-19T01:14:50.141Z,2.25
2017-04-19T01:15:51.135Z,2.15
2017-04-19T01:16:52.294Z,2.12
2017-04-19T01:17:53.537Z,2.23
2017-04-19T01:18:54.856Z,2.16
2017-04-19T01:19:56.146Z,2.13
2017-04-19T01:20:57.144Z,2.20
2017-04-19T01:21:58.161Z,2.24
2017-04-19T01:22:59.230Z,2.16
2017-04-19T01:24:00.400Z,2.22
2017-04-19T01:25:01.712Z,2.36
2017-04-19T01:26:02.706Z,2.20
2017-04-19T01:27:03.717Z,2.07
2017-04-19T01:28:04.856Z,2.05
2017-04-19T01:29:05.895Z,2.11
2017-04-19T01:30:07.394Z,1.95
2017-04-19T01:31:09.599Z,2.00
2017-04-19T01:32:14.533Z,1.92
2017-04-19T01:33:15.808Z,2.09
2017-04-19T01:34:16.902Z,2.01
2017-04-19T01:35:18.020Z,1.99
2017-04-19T01:36:19.577Z,2.03
2017-04-19T01:37:20.570Z,2.14
2017-04-19T01:38:21.643Z,2.02
2017-04-19T01:39:22.838Z,1.99
2017-04-19T01:40:23.809Z,2.09
2017-04-19T01:41:24.931Z,2.14
2017-04-19T01:42:26.028Z,2.10
2017-04-19T01:43:27.183Z,2.11
2017-04-19T01:44:28.419Z,2.14
2017-04-19T01:45:31.481Z,2.18
2017-04-19T01:46:33.076Z,2.24
2017-04-19T01:47:34.261Z,2.53
2017-04-19T01:48:35.508Z,2.37
2017-04-19T01:49:36.628Z,2.28
2017-04-19T01:50:38.012Z,2.31
2017-04-19T01:51:39.361Z,2.23
2017-04-19T01:52:40.587Z,2.11
2017-04-19T01:53:41.785Z,2.08
2017-04-19T01:54:42.940Z,2.02
2017-04-19T01:55:44.392Z,1.94
2017-04-19T01:56:45.618Z,2.08
2017-04-19T01:57:46.914Z,2.12
2017-04-19T01:58:48.144Z,2.17
2017-04-19T01:59:49.440Z,2.12
2017-04-19T02:00:50.538Z,2.13
2017-04-19T02:01:51.632Z,2.10
2017-04-19T02:02:52.962Z,2.21
2017-04-19T02:03:54.727Z,1.98
2017-04-19T02:04:55.766Z,2.05
2017-04-19T02:06:02.199Z,2.08
2017-04-19T02:07:07.476Z,2.02
2017-04-19T02:08:09.822Z,2.27
2017-04-19T02:09:11.523Z,2.32
2017-04-19T02:10:12.825Z,2.31
2017-04-19T02:11:13.859Z,2.26
2017-04-19T02:12:14.819Z,2.30
2017-04-19T02:13:16.000Z,2.21
2017-04-19T02:14:17.017Z,2.27
2017-04-19T02:15:18.266Z,2.35
2017-04-19T02:16:19.319Z,2.37
2017-04-19T02:17:20.458Z,2.41
2017-04-19T02:18:21.959Z,2.40
2017-04-19T02:19:23.029Z,2.34
2017-04-19T02:20:23.953Z,2.40
2017-04-19T02:21:24.880Z,2.43
2017-04-19T02:22:26.003Z,2.35
2017-04-19T02:23:26.955Z,2.33
2017-04-19T02:24:27.950Z,2.35
2017-04-19T02:25:29.266Z,2.32
2017-04-19T02:26:30.235Z,2.36
2017-04-19T02:27:31.663Z,2.31
2017-04-19T02:28:32.603Z,2.33
2017-04-19T02:29:33.552Z,2.21
2017-04-19T02:30:34.740Z,2.27
2017-04-19T02:31:35.683Z,2.27
2017-04-19T02:32:36.915Z,2.35
2017-04-19T02:33:38.107Z,2.41
2017-04-19T02:34:39.325Z,2.39
2017-04-19T02:35:40.414Z,2.38
2017-04-19T02:36:41.567Z,2.39
2017-04-19T02:37:42.877Z,2.38
2017-04-19T02:38:43.980Z,2.39
2017-04-19T02:39:45.243Z,2.28
2017-04-19T02:40:46.439Z,2.22
2017-04-19T02:41:47.636Z,2.24
2017-04-19T02:42:48.838Z,2.21
2017-04-19T02:43:49.998Z,2.17
2017-04-19T02:44:51.288Z,2.25
2017-04-19T02:45:52.751Z,2.24
2017-04-19T02:46:54.037Z,2.25
2017-04-19T02:47:55.215Z,2.31
2017-04-19T02:48:56.229Z,2.14
2017-04-19T02:49:57.242Z,2.16
2017-04-19T02:50:58.504Z,2.15
2017-04-19T02:51:59.811Z,2.26
2017-04-19T02:53:01.015Z,2.19
2017-04-19T02:54:02.141Z,2.16
2017-04-19T02:55:03.266Z,2.13
2017-04-19T02:56:04.656Z,2.19
2017-04-19T02:57:05.554Z,2.18
2017-04-19T02:58:06.865Z,2.22
2017-04-19T02:59:08.000Z,2.17
2017-04-19T03:00:09.009Z,2.20
2017-04-19T03:01:10.180Z,2.24
2017-04-19T03:02:11.311Z,2.35
2017-04-19T03:03:12.317Z,2.17
2017-04-19T03:04:13.484Z,2.20
2017-04-19T03:05:14.714Z,2.07
2017-04-19T03:06:15.854Z,2.04
2017-04-19T03:07:17.028Z,2.05
2017-04-19T03:08:18.095Z,1.95
2017-04-19T03:09:19.454Z,2.08
2017-04-19T03:10:20.612Z,1.99
2017-04-19T03:11:21.816Z,2.02
2017-04-19T03:12:23.331Z,1.95
2017-04-19T03:13:24.527Z,2.02
2017-04-19T03:14:25.785Z,1.97
2017-04-19T03:15:27.024Z,2.06
2017-04-19T03:16:28.003Z,2.10
2017-04-19T03:17:29.137Z,2.09
2017-04-19T03:18:30.122Z,2.10
2017-04-19T03:19:31.160Z,2.06
2017-04-19T03:20:32.229Z,1.99
2017-04-19T03:21:33.484Z,2.02
2017-04-19T03:22:34.618Z,2.13
2017-04-19T03:23:35.899Z,2.13
2017-04-19T03:24:37.095Z,2.12
2017-04-19T03:25:38.296Z,2.21
2017-04-19T03:26:39.434Z,2.06
2017-04-19T03:27:40.668Z,2.10
2017-04-19T03:28:41.905Z,1.99
2017-04-19T03:29:43.107Z,2.01
2017-04-19T03:30:44.337Z,2.03
2017-04-19T03:31:45.556Z,2.06
2017-04-19T03:32:46.947Z,2.13
2017-04-19T03:33:48.443Z,2.16
2017-04-19T03:34:49.512Z,2.24
2017-04-19T03:35:50.797Z,2.19
2017-04-19T03:36:51.911Z,2.14
2017-04-19T03:37:53.175Z,2.18
2017-04-19T03:38:54.478Z,2.15
2017-04-19T03:39:55.598Z,2.21
2017-04-19T03:40:56.776Z,2.20
2017-04-19T03:41:57.970Z,2.14
2017-04-19T03:42:59.152Z,2.06
2017-04-19T03:44:00.376Z,2.13
2017-04-19T03:45:01.493Z,2.13
2017-04-19T03:46:02.624Z,2.09
2017-04-19T03:47:03.908Z,2.09
2017-04-19T03:48:05.063Z,2.14
2017-04-19T03:49:06.271Z,2.09
2017-04-19T03:50:07.428Z,1.99
2017-04-19T03:51:08.681Z,2.07
2017-04-19T03:52:10.355Z,2.14
2017-04-19T03:53:11.540Z,2.23
2017-04-19T03:54:12.764Z,2.25
2017-04-19T03:55:13.918Z,2.28
2017-04-19T03:56:15.065Z,2.13
2017-04-19T03:57:16.306Z,2.18
2017-04-19T03:58:17.479Z,2.18
2017-04-19T03:59:18.662Z,2.05
2017-04-19T04:00:19.879Z,2.04
2017-04-19T04:01:21.211Z,2.03
2017-04-19T04:02:22.581Z,2.14
2017-04-19T04:03:24.286Z,2.15
2017-04-19T04:04:25.435Z,2.14
2017-04-19T04:05:26.595Z,2.02
2017-04-19T04:06:27.700Z,2.14
2017-04-19T04:07:28.704Z,2.11
2017-04-19T04:08:30.804Z,2.08
2017-04-19T04:09:35.395Z,2.08
2017-04-19T04:10:37.698Z,2.18
2017-04-19T04:11:43.463Z,2.15
2017-04-19T04:12:45.389Z,2.23
2017-04-19T04:13:46.835Z,2.16
2017-04-19T04:14:48.119Z,2.16
2017-04-19T04:15:49.517Z,2.03
2017-04-19T04:16:52.896Z,2.09
2017-04-19T04:18:01.351Z,2.14
2017-04-19T04:19:03.667Z,2.21
2017-04-19T04:20:05.240Z,2.21
2017-04-19T04:21:06.590Z,2.22
2017-04-19T04:22:07.767Z,2.22
2017-04-19T04:23:08.908Z,2.23
2017-04-19T04:24:10.098Z,2.25
2017-04-19T04:25:11.184Z,2.06
2017-04-19T04:26:12.373Z,2.01
2017-04-19T04:27:13.552Z,1.89
2017-04-19T04:28:14.789Z,2.05
2017-04-19T04:29:16.139Z,2.04
2017-04-19T04:30:17.332Z,2.01
2017-04-19T04:31:18.503Z,2.18
2017-04-19T04:32:19.716Z,2.08
2017-04-19T04:33:20.882Z,2.03
2017-04-19T04:34:22.507Z,1.99
2017-04-19T04:35:23.696Z,2.03
2017-04-19T04:36:24.828Z,1.94
2017-04-19T04:37:25.988Z,1.93
2017-04-19T04:38:27.336Z,1.99
2017-04-19T04:39:28.513Z,2.04
2017-04-19T04:40:29.747Z,2.19
2017-04-19T04:41:30.924Z,2.09
2017-04-19T04:42:32.221Z,1.99
2017-04-19T04:43:33.423Z,1.96
2017-04-19T04:44:34.689Z,1.92
2017-04-19T04:45:35.921Z,2.14
2017-04-19T04:46:37.070Z,2.09
2017-04-19T04:47:38.392Z,2.13
2017-04-19T04:48:39.496Z,2.12
2017-04-19T04:49:40.705Z,2.09
2017-04-19T04:50:42.020Z,2.16
2017-04-19T04:51:43.169Z,2.26
2017-04-19T04:52:44.321Z,2.09
2017-04-19T04:53:45.625Z,2.03
2017-04-19T04:54:46.820Z,2.02
2017-04-19T04:55:48.079Z,2.10
2017-04-19T04:56:49.265Z,2.11
2017-04-19T04:57:50.356Z,2.19
2017-04-19T04:58:51.355Z,2.18
2017-04-19T04:59:52.609Z,2.09
2017-04-19T05:00:54.138Z,2.16
2017-04-19T05:01:55.336Z,2.17
2017-04-19T05:02:56.540Z,2.12
2017-04-19T05:03:57.779Z,2.11
2017-04-19T05:04:58.908Z,2.02
2017-04-19T05:05:59.933Z,2.10
2017-04-19T05:07:01.089Z,2.05
2017-04-19T05:08:02.213Z,2.15
2017-04-19T05:09:03.850Z,2.14
2017-04-19T05:10:04.994Z,2.19
2017-04-19T05:11:06.380Z,2.26
2017-04-19T05:12:07.539Z,2.21
2017-04-19T05:13:08.684Z,2.21
2017-04-19T05:14:09.920Z,2.23
2017-04-19T05:15:11.075Z,2.16
2017-04-19T05:16:12.276Z,2.11
2017-04-19T05:17:13.431Z,2.14
2017-04-19T05:18:14.987Z,2.18
2017-04-19T05:19:16.094Z,2.17
2017-04-19T05:20:17.271Z,2.22
2017-04-19T05:21:18.539Z,2.23
2017-04-19T05:22:20.005Z,2.21
2017-04-19T05:23:21.157Z,2.16
2017-04-19T05:24:22.283Z,2.23
2017-04-19T05:25:23.226Z,2.23
2017-04-19T05:26:24.367Z,2.17
2017-04-19T05:27:25.537Z,2.27
2017-04-19T05:28:26.806Z,2.31
2017-04-19T05:29:27.893Z,2.39
2017-04-19T05:30:29.062Z,2.42
2017-04-19T05:31:30.391Z,2.38
2017-04-19T05:32:31.627Z,2.42
2017-04-19T05:33:32.827Z,2.58
2017-04-19T05:34:34.814Z,2.51
2017-04-19T05:35:35.903Z,2.42
2017-04-19T05:36:37.112Z,2.38
2017-04-19T05:37:38.347Z,2.39
2017-04-19T05:38:39.582Z,2.46
2017-04-19T05:39:40.839Z,2.38
2017-04-19T05:40:41.978Z,2.40
2017-04-19T05:41:43.182Z,2.47
2017-04-19T05:42:44.652Z,2.35
2017-04-19T05:43:45.988Z,2.54
2017-04-19T05:44:47.366Z,2.39
2017-04-19T05:45:48.503Z,2.32
2017-04-19T05:46:49.765Z,2.35
2017-04-19T05:47:50.893Z,2.32
2017-04-19T05:48:52.211Z,2.51
2017-04-19T05:49:53.388Z,2.55
2017-04-19T05:50:54.643Z,2.51
2017-04-19T05:51:55.914Z,2.53
2017-04-19T05:52:57.094Z,2.46
2017-04-19T05:53:58.516Z,2.51
2017-04-19T05:54:59.682Z,2.63
2017-04-19T05:56:00.879Z,2.48
2017-04-19T05:57:02.046Z,2.46
2017-04-19T05:58:03.279Z,2.54
2017-04-19T05:59:04.494Z,2.50
2017-04-19T06:00:05.649Z,2.58
2017-04-19T06:01:06.571Z,2.68
2017-04-19T06:02:07.980Z,2.78
2017-04-19T06:03:09.202Z,2.55
2017-04-19T06:04:12.767Z,2.47
2017-04-19T06:05:14.535Z,2.49
2017-04-19T06:06:15.696Z,2.51
2017-04-19T06:07:16.827Z,2.52
2017-04-19T06:08:17.947Z,2.56
2017-04-19T06:09:19.264Z,2.60
2017-04-19T06:10:24.437Z,2.44
2017-04-19T06:11:27.639Z,2.53
2017-04-19T06:12:29.765Z,2.67
2017-04-19T06:13:33.430Z,2.80
2017-04-19T06:14:38.495Z,2.81
2017-04-19T06:15:41.740Z,2.60
2017-04-19T06:16:43.844Z,2.60
2017-04-19T06:17:47.103Z,2.55
2017-04-19T06:18:49.961Z,2.67
2017-04-19T06:19:51.885Z,2.73
2017-04-19T06:20:54.852Z,2.87
2017-04-19T06:21:58.220Z,2.83
2017-04-19T06:23:01.977Z,2.85
2017-04-19T06:24:05.808Z,2.72
2017-04-19T06:25:08.354Z,2.67
2017-04-19T06:26:10.840Z,2.65
2017-04-19T06:27:16.963Z,2.79
2017-04-19T06:28:19.920Z,2.81
2017-04-19T06:29:22.004Z,2.85
2017-04-19T06:30:24.742Z,2.94
2017-04-19T06:31:27.080Z,2.87
2017-04-19T06:32:30.195Z,2.99
2017-04-19T06:33:32.809Z,2.92
2017-04-19T06:34:35.927Z,3.00
2017-04-19T06:35:41.578Z,3.00
2017-04-19T06:36:45.752Z,3.07
2017-04-19T06:37:48.334Z,3.03
2017-04-19T06:38:51.044Z,3.08
2017-04-19T06:39:55.265Z,3.04
2017-04-19T06:40:59.620Z,3.03
2017-04-19T06:42:04.703Z,3.08
2017-04-19T06:43:09.211Z,3.14
2017-04-19T06:44:12.211Z,3.07
2017-04-19T06:45:16.558Z,3.17
2017-04-19T06:46:18.318Z,3.15
2017-04-19T06:47:21.629Z,3.18
2017-04-19T06:48:22.980Z,3.29
2017-04-19T06:49:24.216Z,3.27
2017-04-19T06:50:29.529Z,3.09
2017-04-19T06:51:32.215Z,3.18
2017-04-19T06:52:36.002Z,3.27
2017-04-19T06:53:37.712Z,3.25
2017-04-19T06:54:42.822Z,3.42
2017-04-19T06:55:47.341Z,3.64
2017-04-19T06:56:49.686Z,3.42
2017-04-19T06:57:54.142Z,3.49
2017-04-19T06:58:56.552Z,3.71
2017-04-19T06:59:59.885Z,3.59
2017-04-19T07:01:03.403Z,3.31
2017-04-19T07:02:06.055Z,3.51
2017-04-19T07:03:10.335Z,3.40
2017-04-19T07:04:14.898Z,3.47
2017-04-19T07:05:17.459Z,3.45
2017-04-19T07:06:20.664Z,3.51
2017-04-19T07:07:24.856Z,3.59
2017-04-19T07:08:28.118Z,3.69
2017-04-19T07:09:30.352Z,3.72
2017-04-19T07:10:33.917Z,3.57
2017-04-19T07:11:37.453Z,3.59
2017-04-19T07:12:40.737Z,3.88
2017-04-19T07:13:43.899Z,3.99
2017-04-19T07:14:46.979Z,4.05
2017-04-19T07:15:50.752Z,4.04
2017-04-19T07:16:54.327Z,3.89
2017-04-19T07:17:57.755Z,3.74
2017-04-19T07:19:00.065Z,3.66
2017-04-19T07:20:04.043Z,3.77
2017-04-19T07:21:08.334Z,3.84
2017-04-19T07:22:12.590Z,3.72
2017-04-19T07:23:14.946Z,3.92
2017-04-19T07:24:18.830Z,3.98
2017-04-19T07:25:22.573Z,4.01
2017-04-19T07:26:24.433Z,4.06
2017-04-19T07:27:27.673Z,4.25
2017-04-19T07:28:28.657Z,4.35
2017-04-19T07:29:29.881Z,4.38
2017-04-19T07:30:32.136Z,4.45
2017-04-19T07:31:33.322Z,4.46
2017-04-19T07:32:34.487Z,4.29
2017-04-19T07:33:35.703Z,4.36
2017-04-19T07:34:37.071Z,4.32
2017-04-19T07:35:38.150Z,4.43
2017-04-19T07:36:39.460Z,4.28
2017-04-19T07:37:40.713Z,4.42
2017-04-19T07:38:42.070Z,4.30
2017-04-19T07:39:43.314Z,4.33
2017-04-19T07:40:44.552Z,4.49
2017-04-19T07:41:46.491Z,4.26
2017-04-19T07:42:47.760Z,4.32
2017-04-19T07:43:48.984Z,4.25
2017-04-19T07:44:50.212Z,4.31
2017-04-19T07:45:51.364Z,4.48
2017-04-19T07:46:52.642Z,4.49
2017-04-19T07:47:54.017Z,4.45
2017-04-19T07:48:55.303Z,4.65
2017-04-19T07:49:56.523Z,4.37
2017-04-19T07:50:58.081Z,4.27
2017-04-19T07:51:59.400Z,4.11
2017-04-19T07:53:00.568Z,4.06
2017-04-19T07:54:01.679Z,4.15
2017-04-19T07:55:02.740Z,4.33
2017-04-19T07:56:03.974Z,4.28
2017-04-19T07:57:05.585Z,4.15
2017-04-19T07:58:06.715Z,3.91
2017-04-19T07:59:07.833Z,3.92
2017-04-19T08:00:09.053Z,4.00
2017-04-19T08:01:10.307Z,3.94
2017-04-19T08:02:11.296Z,3.86
2017-04-19T08:03:12.459Z,3.75
2017-04-19T08:04:13.807Z,3.93
2017-04-19T08:05:15.019Z,3.97
2017-04-19T08:06:16.188Z,4.18
2017-04-19T08:07:17.176Z,4.36
2017-04-19T08:08:18.410Z,4.59
2017-04-19T08:09:19.612Z,4.63
2017-04-19T08:10:20.746Z,4.59
2017-04-19T08:11:21.877Z,4.45
2017-04-19T08:12:23.089Z,4.34
2017-04-19T08:13:24.084Z,4.57
2017-04-19T08:14:25.318Z,4.49
2017-04-19T08:15:26.470Z,4.49
2017-04-19T08:16:27.611Z,4.51
2017-04-19T08:17:29.048Z,4.42
2017-04-19T08:18:30.160Z,4.50
2017-04-19T08:19:31.568Z,4.46
2017-04-19T08:20:32.760Z,4.62
2017-04-19T08:21:33.731Z,4.52
2017-04-19T08:22:35.311Z,4.38
2017-04-19T08:23:36.459Z,4.33
2017-04-19T08:24:37.660Z,4.31
2017-04-19T08:25:39.074Z,4.40
2017-04-19T08:26:40.299Z,4.34
2017-04-19T08:27:41.536Z,4.56
2017-04-19T08:28:42.751Z,4.68
2017-04-19T08:29:43.951Z,4.59
2017-04-19T08:30:45.462Z,4.52
2017-04-19T08:31:46.884Z,4.51
2017-04-19T08:32:48.077Z,4.46
2017-04-19T08:33:49.227Z,4.61
2017-04-19T08:34:50.418Z,4.55
2017-04-19T08:35:51.597Z,4.60
2017-04-19T08:36:52.719Z,4.39
2017-04-19T08:37:54.095Z,4.29
2017-04-19T08:38:55.079Z,4.30
2017-04-19T08:39:56.338Z,4.27
2017-04-19T08:40:57.549Z,4.22
2017-04-19T08:41:59.156Z,4.22
2017-04-19T08:43:00.164Z,4.28
2017-04-19T08:44:01.132Z,4.24
2017-04-19T08:45:02.871Z,4.17
2017-04-19T08:46:03.959Z,4.21
2017-04-19T08:47:04.883Z,4.18
2017-04-19T08:48:06.035Z,4.19
2017-04-19T08:49:07.148Z,4.22
2017-04-19T08:50:08.326Z,4.19
2017-04-19T08:51:09.615Z,4.36
2017-04-19T08:52:10.560Z,4.31
2017-04-19T08:53:11.799Z,4.26
2017-04-19T08:54:12.921Z,4.22
2017-04-19T08:55:14.133Z,4.32
2017-04-19T08:56:15.279Z,4.31
2017-04-19T08:57:16.645Z,4.26
2017-04-19T08:58:17.898Z,4.22
2017-04-19T08:59:19.200Z,4.27
2017-04-19T09:00:20.372Z,4.37
2017-04-19T09:01:21.418Z,4.35
2017-04-19T09:02:22.380Z,4.29
2017-04-19T09:03:23.537Z,4.31
2017-04-19T09:04:24.549Z,4.26
2017-04-19T09:05:25.753Z,4.52
2017-04-19T09:06:26.924Z,4.63
2017-04-19T09:07:28.090Z,4.50
2017-04-19T09:08:29.371Z,4.54
2017-04-19T09:09:30.565Z,4.58
2017-04-19T09:10:31.779Z,4.50
2017-04-19T09:11:32.926Z,4.55
2017-04-19T09:12:35.256Z,4.65
2017-04-19T09:13:36.379Z,4.75
2017-04-19T09:14:37.507Z,4.83
2017-04-19T09:15:38.461Z,4.85
2017-04-19T09:16:39.795Z,4.65
2017-04-19T09:17:41.024Z,4.59
2017-04-19T09:18:42.296Z,4.56
2017-04-19T09:19:43.482Z,4.85
2017-04-19T09:20:44.454Z,4.82
2017-04-19T09:21:46.091Z,4.81
2017-04-19T09:22:47.395Z,4.82
2017-04-19T09:23:48.544Z,4.77
2017-04-19T09:24:49.693Z,4.78
2017-04-19T09:25:50.909Z,4.85
2017-04-19T09:26:51.842Z,4.89
2017-04-19T09:27:53.376Z,4.95
2017-04-19T09:28:54.619Z,4.88
2017-04-19T09:29:56.086Z,4.83
2017-04-19T09:30:57.136Z,4.61
2017-04-19T09:31:58.134Z,4.67
2017-04-19T09:32:59.643Z,4.65
2017-04-19T09:34:00.820Z,4.60
2017-04-19T09:35:02.100Z,4.63
2017-04-19T09:36:03.287Z,4.67
2017-04-19T09:37:04.607Z,4.85
2017-04-19T09:38:05.751Z,4.67
2017-04-19T09:39:07.054Z,4.62
2017-04-19T09:40:08.284Z,4.69
2017-04-19T09:41:09.539Z,4.90
2017-04-19T09:42:10.478Z,4.90
2017-04-19T09:43:12.343Z,4.88
2017-04-19T09:44:13.700Z,4.83
2017-04-19T09:45:14.921Z,4.84
2017-04-19T09:46:15.928Z,4.75
2017-04-19T09:47:17.511Z,4.92
2017-04-19T09:48:19.196Z,5.28
2017-04-19T09:49:20.530Z,5.43
2017-04-19T09:50:21.714Z,5.59
2017-04-19T09:51:23.020Z,5.79
2017-04-19T09:52:24.175Z,5.83
2017-04-19T09:53:25.279Z,5.83
2017-04-19T09:54:26.315Z,5.79
2017-04-19T09:55:27.371Z,5.98
2017-04-19T09:56:28.620Z,5.80
2017-04-19T09:57:29.815Z,5.78
2017-04-19T09:58:30.947Z,5.61
2017-04-19T09:59:32.220Z,5.92
2017-04-19T10:00:33.500Z,6.13
2017-04-19T10:01:34.440Z,5.64
2017-04-19T10:02:35.661Z,5.71
2017-04-19T10:03:36.824Z,5.62
2017-04-19T10:04:38.098Z,5.68
2017-04-19T10:05:39.816Z,5.53
2017-04-19T10:06:40.927Z,5.40
2017-04-19T10:07:41.887Z,5.34
2017-04-19T10:08:42.812Z,5.31
2017-04-19T10:09:43.998Z,5.51
2017-04-19T10:10:46.156Z,5.49
2017-04-19T10:11:47.319Z,5.47
2017-04-19T10:12:48.443Z,5.39
2017-04-19T10:13:49.394Z,5.55
2017-04-19T10:14:50.363Z,5.58
2017-04-19T10:15:51.584Z,5.60
2017-04-19T10:16:52.987Z,5.82
2017-04-19T10:17:54.344Z,6.01
2017-04-19T10:18:55.615Z,6.03
2017-04-19T10:19:57.014Z,6.21
2017-04-19T10:20:58.172Z,6.11
2017-04-19T10:21:59.744Z,5.96
2017-04-19T10:23:00.709Z,5.96
2017-04-19T10:24:01.854Z,5.80
2017-04-19T10:25:02.777Z,5.68
2017-04-19T10:26:04.006Z,5.80
2017-04-19T10:27:04.943Z,5.81
2017-04-19T10:28:06.070Z,5.74
2017-04-19T10:29:06.974Z,5.73
2017-04-19T10:30:08.743Z,5.81
2017-04-19T10:31:09.980Z,5.88
2017-04-19T10:32:11.104Z,5.73
2017-04-19T10:33:12.604Z,5.72
2017-04-19T10:34:14.211Z,5.53
2017-04-19T10:35:15.337Z,5.42
2017-04-19T10:36:16.519Z,5.45
2017-04-19T10:37:18.075Z,5.48
2017-04-19T10:38:19.339Z,5.53
2017-04-19T10:39:20.475Z,5.49
2017-04-19T10:40:21.747Z,5.53
2017-04-19T10:41:22.818Z,5.56
2017-04-19T10:42:24.302Z,5.56
2017-04-19T10:43:25.479Z,5.59
2017-04-19T10:44:26.656Z,5.63
2017-04-19T10:45:27.836Z,5.78
2017-04-19T10:46:29.238Z,5.77
2017-04-19T10:47:30.282Z,5.78
2017-04-19T10:48:31.180Z,5.87
2017-04-19T10:49:32.224Z,6.04
2017-04-19T10:50:33.346Z,5.87
2017-04-19T10:51:34.580Z,5.94
2017-04-19T10:52:35.894Z,5.92
2017-04-19T10:53:37.198Z,6.07
2017-04-19T10:54:38.383Z,6.00
2017-04-19T10:55:39.499Z,6.13
2017-04-19T10:56:40.731Z,5.84
2017-04-19T10:57:41.964Z,5.90
2017-04-19T10:58:43.178Z,5.75
2017-04-19T10:59:44.177Z,5.77
2017-04-19T11:00:45.527Z,5.76
2017-04-19T11:01:46.742Z,5.82
2017-04-19T11:02:48.043Z,5.74
2017-04-19T11:03:49.262Z,5.49
2017-04-19T11:04:50.544Z,5.53
2017-04-19T11:05:51.647Z,5.56
2017-04-19T11:06:52.948Z,5.65
2017-04-19T11:07:54.203Z,5.62
2017-04-19T11:08:55.596Z,5.46
2017-04-19T11:09:56.867Z,5.33
2017-04-19T11:10:58.065Z,5.48
2017-04-19T11:11:59.147Z,5.62
2017-04-19T11:13:00.333Z,5.53
2017-04-19T11:14:01.628Z,5.51
2017-04-19T11:15:02.894Z,5.66
2017-04-19T11:16:04.059Z,5.53
2017-04-19T11:17:05.284Z,5.51
2017-04-19T11:18:07.177Z,5.54
2017-04-19T11:19:08.216Z,5.24
2017-04-19T11:20:09.564Z,5.21
2017-04-19T11:21:10.724Z,5.27
2017-04-19T11:22:11.926Z,5.30
2017-04-19T11:23:13.060Z,5.31
2017-04-19T11:24:14.303Z,5.34
2017-04-19T11:25:15.487Z,5.21
2017-04-19T11:26:16.548Z,5.24
2017-04-19T11:27:17.702Z,5.28
2017-04-19T11:28:18.962Z,5.13
2017-04-19T11:29:20.039Z,5.11
2017-04-19T11:30:22.004Z,5.14
2017-04-19T11:31:23.304Z,5.06
2017-04-19T11:32:24.359Z,5.08
2017-04-19T11:33:25.516Z,5.06
2017-04-19T11:34:26.785Z,5.08
2017-04-19T11:35:27.879Z,5.04
2017-04-19T11:36:29.300Z,5.05
2017-04-19T11:37:30.667Z,5.17
2017-04-19T11:38:31.898Z,5.10
2017-04-19T11:39:33.028Z,5.19
2017-04-19T11:40:34.250Z,5.30
2017-04-19T11:41:35.456Z,5.33
2017-04-19T11:42:37.036Z,5.35
2017-04-19T11:43:38.223Z,5.39
2017-04-19T11:44:39.657Z,5.52
2017-04-19T11:45:40.875Z,5.76
2017-04-19T11:46:42.024Z,5.84
2017-04-19T11:47:43.292Z,5.86
2017-04-19T11:48:44.459Z,6.04
2017-04-19T11:49:45.798Z,6.12
2017-04-19T11:50:47.077Z,6.23
2017-04-19T11:51:48.418Z,6.43
2017-04-19T11:52:49.685Z,6.74
2017-04-19T11:53:50.878Z,6.67
2017-04-19T11:54:51.910Z,6.46
2017-04-19T11:55:53.275Z,6.27
2017-04-19T11:56:54.547Z,6.45
2017-04-19T11:57:55.623Z,6.34
2017-04-19T11:58:56.935Z,6.26
2017-04-19T11:59:58.026Z,6.31
2017-04-19T12:00:59.171Z,6.26
2017-04-19T12:02:00.254Z,6.20
2017-04-19T12:03:01.237Z,6.10
2017-04-19T12:04:03.195Z,6.04
2017-04-19T12:05:04.557Z,5.69
2017-04-19T12:06:05.659Z,5.71
2017-04-19T12:07:06.666Z,5.81
2017-04-19T12:08:07.799Z,5.83
2017-04-19T12:09:09.100Z,5.75
2017-04-19T12:10:10.531Z,5.85
2017-04-19T12:11:11.751Z,6.02
2017-04-19T12:12:12.905Z,6.13
2017-04-19T12:13:14.116Z,6.27
2017-04-19T12:14:15.299Z,6.42
2017-04-19T12:15:16.606Z,6.36
2017-04-19T12:16:17.827Z,6.46
2017-04-19T12:17:19.083Z,6.37
2017-04-19T12:18:20.505Z,6.38
2017-04-19T12:19:21.763Z,6.25
2017-04-19T12:20:23.107Z,6.06
2017-04-19T12:21:24.290Z,6.16
2017-04-19T12:22:25.424Z,6.35
2017-04-19T12:23:26.446Z,6.41
2017-04-19T12:24:27.439Z,6.31
2017-04-19T12:25:28.705Z,6.21
2017-04-19T12:26:29.787Z,6.23
2017-04-19T12:27:30.824Z,6.19
2017-04-19T12:28:32.335Z,6.22
2017-04-19T12:29:33.475Z,6.02
2017-04-19T12:30:34.552Z,6.00
2017-04-19T12:31:35.792Z,5.69
2017-04-19T12:32:36.973Z,5.49
2017-04-19T12:33:38.220Z,5.55
2017-04-19T12:34:39.439Z,5.84
2017-04-19T12:35:40.502Z,5.66
2017-04-19T12:36:41.616Z,5.71
2017-04-19T12:37:42.728Z,5.63
2017-04-19T12:38:43.871Z,5.80
2017-04-19T12:39:44.828Z,5.78
2017-04-19T12:40:45.905Z,5.84
2017-04-19T12:41:47.609Z,5.86
2017-04-19T12:42:48.875Z,5.80
2017-04-19T12:43:50.056Z,5.83
2017-04-19T12:44:51.431Z,5.84
2017-04-19T12:45:52.477Z,5.83
2017-04-19T12:46:53.539Z,5.85
2017-04-19T12:47:55.095Z,5.91
2017-04-19T12:48:56.230Z,6.06
2017-04-19T12:49:57.403Z,6.01
2017-04-19T12:50:58.600Z,5.97
2017-04-19T12:51:59.596Z,6.27
2017-04-19T12:53:00.642Z,6.38
2017-04-19T12:54:01.856Z,6.33
2017-04-19T12:55:02.887Z,6.49
2017-04-19T12:56:04.229Z,6.56
2017-04-19T12:57:05.260Z,6.83
2017-04-19T12:58:06.417Z,6.91
2017-04-19T12:59:07.367Z,6.91
2017-04-19T13:00:08.308Z,6.88
2017-04-19T13:01:09.362Z,6.97
2017-04-19T13:02:10.368Z,7.16
2017-04-19T13:03:11.914Z,7.17
2017-04-19T13:04:12.998Z,7.08
2017-04-19T13:05:14.278Z,7.04
2017-04-19T13:06:15.496Z,7.06
2017-04-19T13:07:16.803Z,7.26
2017-04-19T13:08:18.091Z,7.10
2017-04-19T13:09:19.177Z,7.06
2017-04-19T13:10:20.387Z,6.76
2017-04-19T13:11:21.820Z,6.85
2017-04-19T13:12:23.101Z,6.93
2017-04-19T13:13:25.006Z,6.96
2017-04-19T13:14:26.281Z,6.80
2017-04-19T13:15:27.231Z,6.38
2017-04-19T13:16:28.220Z,6.58
2017-04-19T13:17:29.384Z,6.31
2017-04-19T13:18:30.618Z,6.26
2017-04-19T13:19:31.580Z,6.18
2017-04-19T13:20:32.785Z,6.14
2017-04-19T13:21:34.151Z,6.11
2017-04-19T13:22:35.260Z,6.18
2017-04-19T13:23:36.259Z,6.25
2017-04-19T13:24:37.343Z,6.26
2017-04-19T13:25:38.559Z,6.25
2017-04-19T13:26:39.556Z,6.37
2017-04-19T13:27:40.724Z,6.09
2017-04-19T13:28:41.964Z,6.09
2017-04-19T13:29:43.153Z,6.12
2017-04-19T13:30:44.480Z,5.94
2017-04-19T13:31:45.479Z,6.01
2017-04-19T13:32:46.471Z,6.05
2017-04-19T13:33:47.635Z,6.04
2017-04-19T13:34:48.795Z,6.25
2017-04-19T13:35:50.169Z,6.15
2017-04-19T13:36:51.364Z,6.16
2017-04-19T13:37:52.523Z,6.24
2017-04-19T13:38:53.580Z,6.33